Time;durP1;ratioP1;P1;durP2;ratioP2;P2;SDS_P1;SDS_P2;PMS_P1;PMS_P2;Temp;Humidity;BMP_temperature;BMP_pressure;BME280_temperature;BME280_humidity;BME280_pressure;Samples;Min_cycle;Max_cycle;Signal;HPM_P1;HPM_P2
2024/01/16 00:01:56;;;;;;;14.73;6.90;;;0.90;62.10;;;-4.49;100.00;94924.47;4985230;28;20033;-56
2024/01/16 00:04:21;;;;;;;15.95;7.65;;;1.00;62.30;;;-4.40;100.00;94929.56;4988404;28;20473;-56
2024/01/16 00:06:47;;;;;;;11.85;6.50;;;1.00;62.40;;;-4.29;100.00;94934.28;4990301;28;20048;-55
2024/01/16 00:09:13;;;;;;;15.15;6.97;;;1.10;62.60;;;-4.21;100.00;94934.91;4992072;28;20025;-56
2024/01/16 00:11:43;;;;;;;13.95;6.85;;;1.10;62.70;;;-4.12;100.00;94932.97;4982661;28;20485;-57
2024/01/16 00:14:10;;;;;;;13.85;6.55;;;1.20;62.80;;;-4.05;100.00;94923.41;4991796;28;20057;-57
2024/01/16 00:16:45;;;;;;;15.45;7.30;;;1.30;62.90;;;-4.01;100.00;94927.28;4984588;28;20488;-55
2024/01/16 00:19:12;;;;;;;14.57;7.47;;;1.40;63.00;;;-3.94;100.00;94937.72;4981634;28;20033;-54
2024/01/16 00:21:47;;;;;;;14.20;6.53;;;1.40;62.80;;;-3.87;100.00;94937.75;4988331;28;20076;-57
2024/01/16 00:24:17;;;;;;;13.75;6.93;;;1.50;62.90;;;-3.85;100.00;94926.16;4986082;28;20018;-56
2024/01/16 00:26:43;;;;;;;13.02;6.35;;;1.50;62.90;;;-3.80;100.00;94922.97;4984829;28;20092;-53
2024/01/16 00:29:12;;;;;;;15.70;6.80;;;1.60;62.80;;;-3.83;100.00;94928.56;4986559;28;20080;-58
2024/01/16 00:31:41;;;;;;;14.07;7.00;;;1.60;62.60;;;-3.83;100.00;94936.38;4988527;28;20032;-58
2024/01/16 00:34:07;;;;;;;15.93;6.85;;;1.60;62.60;;;-3.84;100.00;94934.78;4990676;28;20031;-58
2024/01/16 00:36:33;;;;;;;15.93;7.28;;;1.60;62.50;;;-3.83;100.00;94931.16;4987471;28;20025;-58
2024/01/16 00:38:59;;;;;;;15.52;7.72;;;1.60;62.60;;;-3.80;100.00;94930.78;4991503;28;20487;-58
2024/01/16 00:41:25;;;;;;;14.02;6.70;;;1.60;62.70;;;-3.75;100.00;94931.81;4986961;28;20034;-58
2024/01/16 00:43:51;;;;;;;16.65;7.25;;;1.70;62.80;;;-3.70;100.00;94933.84;4988561;28;20669;-55
2024/01/16 00:46:16;;;;;;;14.05;7.20;;;1.70;62.80;;;-3.72;100.00;94931.44;4991496;28;20038;-57
2024/01/16 00:48:42;;;;;;;15.20;7.53;;;1.70;62.70;;;-3.70;100.00;94933.03;4986782;28;20140;-53
2024/01/16 00:51:08;;;;;;;16.05;7.32;;;1.70;62.70;;;-3.67;100.00;94933.47;4992288;28;20035;-55
2024/01/16 00:53:43;;;;;;;14.55;7.20;;;1.70;62.70;;;-3.64;100.00;94933.06;4978881;28;20040;-58
2024/01/16 00:56:10;;;;;;;14.52;6.60;;;1.70;62.70;;;-3.65;100.00;94928.06;4972051;28;20030;-58
2024/01/16 00:58:37;;;;;;;14.65;6.60;;;1.80;62.70;;;-3.69;100.00;94925.06;4974466;28;20030;-51
2024/01/16 01:01:03;;;;;;;12.15;6.35;;;1.80;62.50;;;-3.71;100.00;94937.44;4980375;28;20065;-54
2024/01/16 01:03:30;;;;;;;16.40;6.85;;;1.80;62.40;;;-3.76;100.00;94940.63;4979736;28;20037;-58
2024/01/16 01:05:57;;;;;;;12.63;6.55;;;1.70;62.40;;;-3.81;100.00;94937.00;4971240;28;20030;-56
2024/01/16 01:08:22;;;;;;;14.90;7.03;;;1.70;62.40;;;-3.83;100.00;94933.78;4979768;28;20374;-55
2024/01/16 01:10:48;;;;;;;17.67;7.72;;;1.70;62.50;;;-3.89;100.00;94940.53;4971722;28;20041;-56
2024/01/16 01:13:14;;;;;;;14.00;7.28;;;1.60;62.40;;;-4.02;100.00;94948.25;4981569;28;20440;-58
2024/01/16 01:15:40;;;;;;;15.30;7.03;;;1.60;63.20;;;-4.22;100.00;94945.53;4977058;28;20030;-58
2024/01/16 01:18:06;;;;;;;15.82;7.05;;;1.50;62.30;;;-4.17;100.00;94943.13;4974196;28;20093;-57
2024/01/16 01:20:32;;;;;;;13.70;6.72;;;1.50;62.30;;;-4.14;100.00;94947.97;4975811;28;20050;-58
2024/01/16 01:22:59;;;;;;;16.35;7.45;;;1.40;62.40;;;-4.19;100.00;94956.34;4979877;28;20033;-57
2024/01/16 01:25:26;;;;;;;16.58;7.40;;;1.30;62.50;;;-4.23;100.00;94962.09;4988603;28;20115;-57
2024/01/16 01:27:52;;;;;;;13.68;7.18;;;1.30;62.60;;;-4.22;100.00;94968.94;4983761;28;20033;-58
2024/01/16 01:30:18;;;;;;;13.55;6.97;;;1.30;62.70;;;-4.24;100.00;94966.50;4984901;28;20022;-54
2024/01/16 01:32:44;;;;;;;14.93;7.30;;;1.20;62.70;;;-4.22;100.00;94961.13;4989849;28;20374;-57
2024/01/16 01:35:11;;;;;;;18.20;7.20;;;1.20;62.90;;;-4.21;100.00;94962.72;4981734;28;20135;-55
2024/01/16 01:37:38;;;;;;;13.95;7.65;;;1.20;62.90;;;-4.20;100.00;94959.94;4983342;28;20463;-55
2024/01/16 01:40:05;;;;;;;14.63;7.07;;;1.20;63.00;;;-4.24;100.00;94963.09;4986100;28;20036;-57
2024/01/16 01:42:31;;;;;;;14.00;6.43;;;1.10;62.90;;;-4.26;100.00;94962.47;4982460;28;20108;-58
2024/01/16 01:44:56;;;;;;;19.08;7.70;;;1.10;62.90;;;-4.29;100.00;94953.28;4986871;28;20094;-53
2024/01/16 01:47:22;;;;;;;16.50;6.80;;;1.10;62.90;;;-4.31;100.00;94960.44;4984826;28;20473;-55
2024/01/16 01:49:50;;;;;;;16.85;6.68;;;1.10;63.00;;;-4.31;100.00;94972.66;4985978;28;20040;-56
2024/01/16 01:52:18;;;;;;;14.02;6.38;;;1.10;63.00;;;-4.43;100.00;94967.13;4985750;28;20112;-54
2024/01/16 01:54:45;;;;;;;13.15;6.18;;;1.00;63.10;;;-4.39;100.00;94964.97;4981045;28;20030;-57
2024/01/16 01:57:12;;;;;;;13.57;6.53;;;1.00;63.10;;;-4.39;100.00;94964.97;4986650;28;20021;-57
2024/01/16 01:59:38;;;;;;;17.08;6.55;;;1.00;63.20;;;-4.42;100.00;94972.16;4984193;28;20033;-55
2024/01/16 02:02:04;;;;;;;15.93;6.95;;;1.00;63.20;;;-4.42;100.00;94976.53;4989545;28;20473;-54
2024/01/16 02:04:32;;;;;;;14.40;6.85;;;1.00;64.00;;;-4.41;100.00;94959.97;4986100;28;20469;-54
2024/01/16 02:06:58;;;;;;;14.13;6.78;;;1.00;63.30;;;-4.39;100.00;94970.16;4987903;28;20021;-56
2024/01/16 02:09:24;;;;;;;14.73;7.03;;;1.10;63.50;;;-4.34;100.00;94965.22;4988486;28;20039;-56
2024/01/16 02:11:50;;;;;;;13.68;6.50;;;1.10;63.50;;;-4.33;100.00;94961.63;4985604;28;20438;-51
2024/01/16 02:14:16;;;;;;;14.98;6.50;;;1.10;63.60;;;-4.27;100.00;94960.88;4989866;28;20036;-56
2024/01/16 02:16:44;;;;;;;14.30;6.95;;;1.20;63.70;;;-4.21;100.00;94965.31;4984913;28;20497;-55
2024/01/16 02:19:11;;;;;;;15.85;6.97;;;1.20;63.70;;;-4.16;100.00;94960.38;4988180;28;20018;-55
2024/01/16 02:22:04;;;;;;;18.85;6.80;;;1.30;63.90;;;-4.09;100.00;94961.22;4988265;28;20037;-53
2024/01/16 02:24:30;;;;;;;13.20;7.03;;;1.30;63.80;;;-4.07;100.00;94963.66;4981753;28;20029;-54
2024/01/16 02:26:56;;;;;;;14.77;7.47;;;1.30;63.70;;;-4.04;100.00;94958.88;4998464;23;20017;-51
2024/01/16 02:29:22;;;;;;;12.95;6.75;;;1.30;63.80;;;-4.06;100.00;94947.84;4978031;28;20042;-53
2024/01/16 02:31:48;;;;;;;17.55;7.45;;;1.40;63.80;;;-4.09;100.00;94950.00;4983793;28;20045;-49
2024/01/16 02:34:14;;;;;;;14.52;7.25;;;1.40;63.70;;;-4.05;100.00;94943.44;4984360;28;20476;-55
2024/01/16 02:36:40;;;;;;;16.50;7.00;;;1.40;63.70;;;-3.98;100.00;94936.47;4980119;28;20025;-52
2024/01/16 02:39:06;;;;;;;13.85;7.43;;;1.50;63.80;;;-3.89;100.00;94942.34;4992032;28;20033;-49
2024/01/16 02:41:32;;;;;;;15.70;7.43;;;1.50;63.80;;;-3.85;100.00;94941.78;4990998;28;20045;-52
2024/01/16 02:43:58;;;;;;;13.80;6.85;;;1.60;63.90;;;-3.87;100.00;94942.97;4989974;28;20506;-49
2024/01/16 02:46:24;;;;;;;14.93;7.38;;;1.60;63.80;;;-3.92;100.00;94938.31;4990525;28;20033;-47
2024/01/16 02:48:50;;;;;;;14.40;7.00;;;1.60;64.50;;;-3.81;100.00;94940.41;4994524;28;20113;-48
2024/01/16 02:51:16;;;;;;;13.38;6.57;;;1.60;63.60;;;-3.75;100.00;94942.25;5002014;28;20555;-47
2024/01/16 02:53:42;;;;;;;16.75;7.57;;;1.70;63.70;;;-3.72;100.00;94939.25;4985943;28;20396;-47
2024/01/16 02:56:09;;;;;;;14.73;6.25;;;1.70;63.60;;;-3.69;100.00;94938.06;5004801;28;20530;-46
2024/01/16 02:58:35;;;;;;;15.82;6.50;;;1.70;63.70;;;-3.63;100.00;94933.91;4991500;28;20082;-47
2024/01/16 03:01:01;;;;;;;15.02;7.07;;;1.80;63.70;;;-3.57;100.00;94940.94;5001125;28;20491;-47
2024/01/16 03:03:27;;;;;;;11.60;6.93;;;1.80;63.70;;;-3.56;100.00;94943.34;4998978;28;20025;-50
2024/01/16 03:05:53;;;;;;;14.75;6.75;;;1.80;63.70;;;-3.51;100.00;94934.94;4997939;28;20071;-47
2024/01/16 03:08:19;;;;;;;13.95;7.00;;;1.90;63.60;;;-3.49;100.00;94936.38;4996824;28;20716;-47
2024/01/16 03:10:45;;;;;;;12.50;6.45;;;1.90;63.50;;;-3.45;100.00;94934.16;4994554;28;20495;-47
2024/01/16 03:13:11;;;;;;;14.30;6.57;;;1.90;63.40;;;-3.40;100.00;94936.22;4994360;28;20040;-52
2024/01/16 03:15:37;;;;;;;13.13;6.32;;;2.00;63.40;;;-3.37;100.00;94935.81;4998510;28;20033;-51
2024/01/16 03:18:03;;;;;;;12.23;6.40;;;2.00;63.40;;;-3.34;100.00;94938.03;4987485;28;20028;-49
2024/01/16 03:20:29;;;;;;;13.93;6.30;;;2.10;63.40;;;-3.30;100.00;94931.44;4996545;28;20029;-49
2024/01/16 03:22:55;;;;;;;12.57;6.80;;;2.10;63.40;;;-3.32;100.00;94931.66;4997143;28;20037;-50
2024/01/16 03:25:21;;;;;;;12.23;5.80;;;2.10;63.30;;;-3.31;100.00;94925.44;4998958;28;20037;-49
2024/01/16 03:27:47;;;;;;;12.90;6.35;;;2.10;63.20;;;-3.26;100.00;94927.44;4995375;28;20053;-48
2024/01/16 03:30:13;;;;;;;10.45;5.65;;;2.20;63.20;;;-3.23;99.93;94924.44;4995375;28;20035;-46
2024/01/16 03:32:40;;;;;;;11.18;5.72;;;2.20;63.10;;;-3.17;99.68;94935.91;4997012;28;20034;-47
2024/01/16 03:35:07;;;;;;;11.95;6.18;;;2.20;63.10;;;-3.15;99.32;94932.09;4999661;28;20021;-48
2024/01/16 03:37:34;;;;;;;13.27;6.65;;;2.30;63.10;;;-3.11;99.30;94942.94;4995663;28;20480;-51
2024/01/16 03:40:01;;;;;;;10.13;5.35;;;2.30;63.00;;;-3.15;98.58;94924.28;5005265;28;20029;-47
2024/01/16 03:42:27;;;;;;;12.05;5.82;;;2.30;62.90;;;-3.13;98.48;94930.13;4993426;28;20144;-51
2024/01/16 03:44:53;;;;;;;12.57;6.00;;;2.40;62.90;;;-3.13;98.49;94934.53;5002116;28;20116;-52
2024/01/16 03:47:19;;;;;;;10.68;5.88;;;2.40;62.80;;;-3.15;98.97;94916.47;4997087;28;20508;-48
2024/01/16 03:49:46;;;;;;;12.57;5.97;;;2.40;62.60;;;-3.09;99.41;94917.50;5000770;28;20040;-52
2024/01/16 03:52:12;;;;;;;12.95;5.68;;;2.40;62.70;;;-3.15;99.31;94919.06;5002625;28;20022;-48
2024/01/16 03:54:38;;;;;;;14.20;5.82;;;2.40;62.60;;;-3.11;99.38;94920.28;4994686;28;20038;-48
2024/01/16 03:57:04;;;;;;;12.23;6.18;;;2.40;62.60;;;-3.09;99.41;94926.13;5000148;28;20024;-50
2024/01/16 03:59:30;;;;;;;11.25;5.80;;;2.40;62.60;;;-3.07;99.66;94924.13;5002254;28;20151;-47
2024/01/16 04:01:56;;;;;;;10.77;6.18;;;2.40;62.70;;;-3.07;99.46;94918.09;4999827;28;20486;-48
2024/01/16 04:04:22;;;;;;;12.23;6.00;;;2.40;62.70;;;-3.08;100.00;94911.28;4996366;28;20116;-55
2024/01/16 04:06:48;;;;;;;12.98;6.65;;;2.40;62.70;;;-3.10;100.00;94914.09;4997700;28;20488;-52
2024/01/16 04:09:14;;;;;;;12.50;6.30;;;2.40;62.70;;;-3.10;100.00;94911.50;5000369;28;20040;-48
2024/01/16 04:11:41;;;;;;;13.10;6.15;;;2.40;62.70;;;-3.09;100.00;94905.25;4996190;28;20029;-48
2024/01/16 04:14:07;;;;;;;11.40;6.35;;;2.40;62.70;;;-3.12;100.00;94900.44;5007129;28;20408;-51
2024/01/16 04:16:32;;;;;;;12.18;6.05;;;2.40;62.70;;;-3.07;100.00;94898.06;4999001;28;20037;-48
2024/01/16 04:18:59;;;;;;;15.50;6.40;;;2.40;62.70;;;-3.15;100.00;94893.03;5010178;28;20453;-52
2024/01/16 04:21:25;;;;;;;12.65;6.43;;;2.40;62.70;;;-3.15;100.00;94890.41;5009156;28;20033;-47
2024/01/16 04:23:51;;;;;;;10.98;6.20;;;2.40;62.70;;;-3.07;100.00;94894.63;4990876;28;20117;-53
2024/01/16 04:26:17;;;;;;;11.60;6.55;;;2.40;62.70;;;-3.04;100.00;94907.28;5004364;28;20041;-54
2024/01/16 04:28:43;;;;;;;11.05;5.50;;;2.40;62.80;;;-3.04;100.00;94904.66;4995088;28;20034;-47
2024/01/16 04:31:11;;;;;;;12.52;6.25;;;2.40;62.70;;;-3.06;100.00;94898.88;4998259;28;20499;-47
2024/01/16 04:33:38;;;;;;;13.32;6.65;;;2.40;62.70;;;-3.05;100.00;94901.25;5005734;28;20808;-51
2024/01/16 04:36:06;;;;;;;13.57;6.75;;;2.50;62.80;;;-3.03;100.00;94898.47;4995068;28;20025;-50
2024/01/16 04:38:32;;;;;;;13.82;6.30;;;2.40;62.70;;;-3.03;100.00;94894.06;4997608;28;20103;-50
2024/01/16 04:41:02;;;;;;;14.10;7.25;;;2.40;62.80;;;-3.05;100.00;94903.06;4999286;28;20056;-52
2024/01/16 04:43:28;;;;;;;13.02;5.88;;;2.40;62.80;;;-3.08;100.00;94901.66;4994565;28;20029;-48
2024/01/16 04:45:54;;;;;;;12.88;6.20;;;2.40;62.70;;;-3.10;100.00;94900.28;4998113;28;20033;-50
2024/01/16 04:48:20;;;;;;;11.85;6.10;;;2.40;62.70;;;-3.09;100.00;94891.44;4994723;28;20036;-47
2024/01/16 04:50:46;;;;;;;12.65;6.13;;;2.40;62.70;;;-3.19;100.00;94889.22;4999780;28;20101;-47
2024/01/16 04:53:12;;;;;;;11.65;5.90;;;2.40;62.80;;;-3.15;100.00;94893.03;4993179;28;20025;-51
2024/01/16 04:55:37;;;;;;;12.15;6.18;;;2.40;62.80;;;-3.13;100.00;94895.44;4995138;28;20125;-51
2024/01/16 04:58:04;;;;;;;11.23;6.05;;;2.40;62.80;;;-3.10;100.00;94887.25;4991417;28;20031;-47
2024/01/16 05:00:30;;;;;;;11.25;6.45;;;2.30;62.80;;;-3.10;100.00;94892.44;4990378;28;20100;-49
2024/01/16 05:02:57;;;;;;;11.10;6.07;;;2.40;62.90;;;-3.11;100.00;94896.84;4997614;28;20018;-47
2024/01/16 05:05:23;;;;;;;11.93;6.25;;;2.40;62.90;;;-3.10;100.00;94889.84;4990423;28;20030;-47
2024/01/16 05:07:49;;;;;;;11.32;6.38;;;2.40;62.90;;;-3.08;100.00;94890.44;5002459;28;20091;-49
2024/01/16 05:10:15;;;;;;;12.98;6.30;;;2.40;62.90;;;-3.07;100.00;94881.59;4996643;28;20041;-49
2024/01/16 05:12:42;;;;;;;15.95;5.85;;;2.40;62.80;;;-3.06;100.00;94878.81;4995650;28;20071;-49
2024/01/16 05:15:11;;;;;;;11.15;5.97;;;2.50;62.90;;;-3.07;100.00;94872.00;4995814;28;20456;-47
2024/01/16 05:17:37;;;;;;;12.38;6.07;;;2.40;62.80;;;-3.09;100.00;94868.00;4991642;28;20029;-51
2024/01/16 05:20:05;;;;;;;12.57;5.70;;;2.50;62.80;;;-3.11;100.00;94877.78;4992234;28;20045;-48
2024/01/16 05:22:31;;;;;;;11.57;6.00;;;2.40;62.70;;;-3.10;100.00;94866.41;4986051;28;20050;-54
2024/01/16 05:24:59;;;;;;;12.27;5.97;;;2.40;62.70;;;-3.10;100.00;94864.59;4986280;28;20030;-49
2024/01/16 05:27:25;;;;;;;18.27;8.60;;;2.40;62.70;;;-3.20;100.00;94856.31;4985810;28;20507;-47
2024/01/16 05:29:51;;;;;;;13.18;6.30;;;2.40;62.70;;;-3.22;100.00;94854.94;4978989;28;20037;-48
2024/01/16 05:32:17;;;;;;;13.25;6.05;;;2.40;62.70;;;-3.20;100.00;94853.72;4983328;28;20063;-49
2024/01/16 05:34:42;;;;;;;12.32;5.93;;;2.40;62.70;;;-3.17;100.00;94842.91;4991476;28;20069;-48
2024/01/16 05:37:08;;;;;;;12.48;6.10;;;2.30;62.70;;;-3.12;100.00;94847.53;4985308;28;20105;-48
2024/01/16 05:39:34;;;;;;;10.93;5.68;;;2.30;62.80;;;-3.06;100.00;94846.75;4984923;28;20100;-46
2024/01/16 05:42:00;;;;;;;12.88;6.20;;;2.30;62.90;;;-3.02;100.00;94850.56;4984000;28;20032;-46
2024/01/16 05:44:26;;;;;;;11.32;5.97;;;2.40;63.00;;;-3.00;100.00;94845.97;4983978;28;20029;-47
2024/01/16 05:46:52;;;;;;;13.45;5.47;;;2.40;63.00;;;-2.98;100.00;94845.75;4984407;28;20088;-49
2024/01/16 05:49:18;;;;;;;10.68;5.70;;;2.40;63.00;;;-2.96;100.00;94835.94;4989927;28;20017;-50
2024/01/16 05:51:44;;;;;;;11.68;6.45;;;2.40;63.00;;;-2.97;100.00;94840.34;4981639;28;20038;-47
2024/01/16 05:54:09;;;;;;;13.75;6.30;;;2.40;62.90;;;-2.97;100.00;94839.56;4983789;28;20026;-47
2024/01/16 05:56:35;;;;;;;14.63;6.70;;;2.50;63.00;;;-2.94;100.00;94844.38;4980281;28;20034;-51
2024/01/16 05:59:01;;;;;;;12.18;6.43;;;2.50;63.00;;;-2.93;100.00;94841.56;4985365;28;20036;-52
2024/01/16 06:01:30;;;;;;;14.88;6.45;;;2.50;63.00;;;-2.98;100.00;94825.69;4980450;28;20025;-52
2024/01/16 06:03:55;;;;;;;11.20;6.20;;;2.50;62.90;;;-2.94;100.00;94829.53;4984974;28;20041;-48
2024/01/16 06:06:22;;;;;;;11.32;5.90;;;2.50;62.80;;;-2.94;100.00;94821.72;4978783;28;20037;-49
2024/01/16 06:08:47;;;;;;;13.75;6.30;;;2.60;62.80;;;-2.99;100.00;94833.72;4983892;28;20242;-52
2024/01/16 06:11:13;;;;;;;13.63;6.22;;;2.60;62.70;;;-3.07;99.59;94830.31;4986400;28;20041;-49
2024/01/16 06:13:40;;;;;;;11.40;6.72;;;2.50;62.50;;;-3.18;98.01;94833.50;4984294;28;20030;-51
2024/01/16 06:16:09;;;;;;;11.85;5.30;;;2.50;62.20;;;-3.31;98.04;94844.69;4988992;28;20470;-48
2024/01/16 06:18:35;;;;;;;11.00;5.18;;;2.40;62.10;;;-3.39;97.59;94844.06;4988161;28;20049;-48
2024/01/16 06:21:05;;;;;;;12.95;7.28;;;2.30;61.90;;;-3.47;96.89;94844.25;4983371;28;20029;-47
2024/01/16 06:23:30;;;;;;;11.13;5.43;;;2.20;61.90;;;-3.62;98.43;94839.97;4986225;28;20026;-47
2024/01/16 06:25:56;;;;;;;10.70;5.45;;;2.10;61.90;;;-3.69;99.70;94839.16;4980340;28;21538;-47
2024/01/16 06:28:22;;;;;;;9.65;4.88;;;2.00;61.90;;;-3.74;99.20;94842.31;4989802;28;20500;-50
2024/01/16 06:30:48;;;;;;;10.60;5.43;;;1.90;62.00;;;-3.86;99.87;94843.06;4984068;28;20041;-49
2024/01/16 06:33:14;;;;;;;18.80;8.90;;;1.80;62.10;;;-3.95;100.00;94839.81;4987143;28;20353;-52
2024/01/16 06:35:40;;;;;;;9.05;5.03;;;1.80;62.30;;;-3.99;100.00;94838.59;4984978;28;20535;-50
2024/01/16 06:38:06;;;;;;;11.68;5.10;;;1.70;62.30;;;-4.00;100.00;94832.59;4983466;28;20084;-49
2024/01/16 06:40:32;;;;;;;10.70;5.57;;;1.60;62.30;;;-4.03;100.00;94832.97;4982503;28;20517;-46
2024/01/16 06:42:57;;;;;;;10.95;4.93;;;1.60;62.40;;;-4.08;100.00;94824.94;4981912;28;20026;-51
2024/01/16 06:45:25;;;;;;;13.43;5.70;;;1.50;62.40;;;-4.12;100.00;94828.13;4983990;28;20072;-48
2024/01/16 06:47:51;;;;;;;11.93;5.28;;;1.40;62.40;;;-4.17;100.00;94818.28;4982683;28;20037;-47
2024/01/16 06:50:17;;;;;;;11.63;5.13;;;1.40;62.50;;;-4.24;100.00;94823.44;4985969;28;20092;-51
2024/01/16 06:52:43;;;;;;;9.32;4.80;;;1.30;62.50;;;-4.33;100.00;94826.41;4980607;28;20113;-47
2024/01/16 06:55:09;;;;;;;11.52;5.13;;;1.30;62.50;;;-4.40;100.00;94823.75;4985574;28;20436;-51
2024/01/16 06:57:35;;;;;;;11.13;5.75;;;1.20;62.50;;;-4.42;100.00;94828.34;4979619;28;20022;-51
2024/01/16 07:00:00;;;;;;;11.75;5.45;;;1.10;62.50;;;-4.45;100.00;94821.75;4981245;28;20036;-51
2024/01/16 07:02:26;;;;;;;11.68;5.40;;;1.10;62.60;;;-4.49;100.00;94820.50;4983364;28;20013;-53
2024/01/16 07:04:52;;;;;;;8.60;4.90;;;1.10;62.70;;;-4.52;100.00;94823.47;4979605;28;20535;-47
2024/01/16 07:07:18;;;;;;;10.52;5.10;;;1.00;62.70;;;-4.56;100.00;94817.06;4988234;28;20024;-49
2024/01/16 07:09:45;;;;;;;9.07;5.05;;;1.00;62.80;;;-4.56;100.00;94809.25;4988692;28;20399;-46
2024/01/16 07:12:11;;;;;;;9.32;5.10;;;1.00;62.80;;;-4.56;100.00;94811.84;4998682;28;20042;-46
2024/01/16 07:14:38;;;;;;;10.23;5.38;;;0.90;62.80;;;-4.59;100.00;94814.84;4984092;28;20393;-47
2024/01/16 07:17:07;;;;;;;10.82;5.40;;;0.90;62.90;;;-4.65;100.00;94818.19;4979800;28;20030;-52
2024/01/16 07:19:33;;;;;;;11.00;5.60;;;0.90;62.80;;;-4.70;100.00;94807.53;4980353;28;20511;-51
2024/01/16 07:21:59;;;;;;;9.85;5.72;;;0.80;62.80;;;-4.74;100.00;94808.91;4988951;28;20029;-51
2024/01/16 07:24:25;;;;;;;11.70;5.28;;;0.80;62.80;;;-4.76;100.00;94814.31;4983113;28;20103;-49
2024/01/16 07:26:51;;;;;;;9.85;4.97;;;0.80;62.80;;;-4.82;100.00;94815.06;4983312;28;20072;-50
2024/01/16 07:29:17;;;;;;;9.63;4.95;;;0.70;62.70;;;-4.86;100.00;94811.22;4989239;28;20456;-50
2024/01/16 07:31:42;;;;;;;9.93;4.25;;;0.70;62.70;;;-4.90;100.00;94821.19;4981512;28;20069;-47
2024/01/16 07:34:08;;;;;;;8.70;4.75;;;0.70;62.70;;;-4.93;100.00;94818.16;4983917;28;20033;-51
2024/01/16 07:36:35;;;;;;;8.52;4.85;;;0.70;62.60;;;-4.99;100.00;94817.09;4986167;28;20076;-50
2024/01/16 07:39:00;;;;;;;11.27;4.97;;;0.70;62.70;;;-5.00;100.00;94817.31;4983240;28;20151;-48
2024/01/16 07:41:26;;;;;;;11.32;4.95;;;0.70;62.60;;;-5.05;100.00;94812.66;4987990;28;20478;-48
2024/01/16 07:43:52;;;;;;;13.35;5.60;;;0.70;62.60;;;-5.10;100.00;94811.63;4989458;28;20500;-47
2024/01/16 07:46:18;;;;;;;9.55;4.78;;;0.60;62.60;;;-5.06;100.00;94818.84;4983004;28;20036;-54
2024/01/16 07:48:44;;;;;;;10.57;5.63;;;0.60;62.70;;;-5.05;100.00;94820.44;4985706;28;21173;-48
2024/01/16 07:51:10;;;;;;;13.63;5.38;;;0.60;62.70;;;-5.07;100.00;94814.66;4978272;28;20485;-47
2024/01/16 07:53:35;;;;;;;10.00;4.75;;;0.60;62.70;;;-5.10;100.00;94816.84;4982767;28;20029;-50
2024/01/16 07:56:01;;;;;;;9.38;4.55;;;0.60;62.70;;;-5.20;100.00;94815.34;4984705;28;20025;-49
2024/01/16 07:58:28;;;;;;;13.77;5.28;;;0.60;62.70;;;-5.19;100.00;94816.16;4984280;28;20093;-49
2024/01/16 08:00:54;;;;;;;13.68;5.85;;;0.60;62.70;;;-5.22;100.00;94812.13;4977774;28;20041;-48
2024/01/16 08:03:20;;;;;;;12.80;5.60;;;0.60;62.70;;;-5.25;100.00;94820.28;4984213;28;20034;-49
2024/01/16 08:05:45;;;;;;;10.75;5.20;;;0.60;62.70;;;-5.23;100.00;94814.91;4988253;28;20037;-50
2024/01/16 08:08:11;;;;;;;11.82;5.47;;;0.60;62.70;;;-5.18;100.00;94821.13;4993697;28;20388;-48
2024/01/16 08:10:37;;;;;;;12.55;5.28;;;0.60;62.80;;;-5.26;100.00;94817.88;4994969;28;20029;-54
2024/01/16 08:13:04;;;;;;;12.05;5.70;;;0.60;62.80;;;-5.20;100.00;94819.72;4994890;28;20052;-52
2024/01/16 08:15:30;;;;;;;11.68;5.85;;;0.70;63.60;;;-5.14;100.00;94817.19;4994636;28;20515;-51
2024/01/16 08:17:56;;;;;;;9.60;5.35;;;0.70;62.90;;;-5.07;100.00;94814.66;4988719;28;20033;-52
2024/01/16 08:20:21;;;;;;;13.75;5.82;;;0.70;62.80;;;-5.03;100.00;94818.47;4992865;28;20033;-47
2024/01/16 08:22:50;;;;;;;10.68;5.65;;;0.80;62.90;;;-4.97;100.00;94804.75;4990653;28;20034;-54
2024/01/16 08:25:16;;;;;;;14.00;5.93;;;0.90;63.00;;;-4.93;100.00;94807.78;4999320;28;20077;-53
2024/01/16 08:27:43;;;;;;;8.95;5.10;;;0.90;62.80;;;-4.95;100.00;94810.56;4997561;28;20128;-47
2024/01/16 08:30:12;;;;;;;12.02;5.63;;;1.00;62.80;;;-4.89;100.00;94814.19;4992334;28;20094;-51
2024/01/16 08:32:38;;;;;;;12.25;5.78;;;1.00;62.70;;;-4.89;100.00;94807.22;5001702;28;20025;-47
2024/01/16 08:35:05;;;;;;;9.57;5.28;;;1.10;62.70;;;-4.79;100.00;94804.31;4995508;28;20036;-49
2024/01/16 08:37:34;;;;;;;9.10;4.88;;;1.20;62.70;;;-4.68;100.00;94808.97;4995744;28;20105;-51
2024/01/16 08:39:59;;;;;;;12.02;5.65;;;1.30;62.70;;;-4.57;100.00;94801.66;4990884;28;20483;-46
2024/01/16 08:42:26;;;;;;;14.52;5.40;;;1.40;62.70;;;-4.45;100.00;94800.94;4998533;28;20021;-49
2024/01/16 08:44:52;;;;;;;11.45;5.78;;;1.50;62.70;;;-4.28;100.00;94800.63;5000834;28;20907;-55
2024/01/16 08:47:19;;;;;;;13.10;5.63;;;1.70;62.70;;;-4.13;100.00;94809.13;5003966;28;20108;-52
2024/01/16 08:49:44;;;;;;;11.52;5.90;;;1.90;62.70;;;-3.90;100.00;94806.22;5002123;28;20529;-57
2024/01/16 08:52:10;;;;;;;12.00;5.63;;;2.20;62.80;;;-3.64;100.00;94808.13;4998283;28;20033;-55
2024/01/16 08:54:36;;;;;;;11.57;5.85;;;2.60;62.90;;;-3.33;100.00;94810.22;4995134;28;20025;-56
2024/01/16 08:57:03;;;;;;;12.23;5.75;;;3.00;62.80;;;-3.00;100.00;94799.06;4995788;28;20574;-58
2024/01/16 08:59:28;;;;;;;11.63;5.60;;;3.40;62.60;;;-2.67;100.00;94798.25;5000105;28;20032;-56
2024/01/16 09:01:54;;;;;;;8.20;4.72;;;3.70;62.20;;;-2.35;97.47;94794.81;4991866;28;20469;-54
2024/01/16 09:04:20;;;;;;;10.70;5.38;;;4.10;61.90;;;-2.11;94.92;94798.56;5000107;28;20476;-48
2024/01/16 09:06:46;;;;;;;11.52;5.63;;;4.40;61.40;;;-1.81;94.44;94790.25;4996372;28;20507;-50
2024/01/16 09:09:12;;;;;;;9.07;5.18;;;4.80;61.00;;;-1.55;92.03;94797.16;4996244;28;20128;-49
2024/01/16 09:11:38;;;;;;;11.15;5.30;;;5.00;60.50;;;-1.34;89.02;94797.88;5012798;28;20033;-55
2024/01/16 09:14:04;;;;;;;14.30;5.13;;;5.40;60.10;;;-1.20;87.40;94791.56;4992742;28;20029;-50
2024/01/16 09:16:30;;;;;;;9.18;5.38;;;5.50;59.80;;;-1.07;85.50;94788.06;4994580;28;20033;-55
2024/01/16 09:18:56;;;;;;;10.25;5.40;;;5.60;59.40;;;-0.95;83.70;94786.38;5002077;28;20014;-52
2024/01/16 09:21:22;;;;;;;10.30;5.45;;;5.70;59.20;;;-0.81;83.29;94794.94;4997043;28;20407;-51
2024/01/16 09:23:48;;;;;;;10.48;5.45;;;5.90;59.00;;;-0.65;81.32;94789.16;4994701;28;20025;-57
2024/01/16 09:26:14;;;;;;;10.10;6.15;;;6.20;58.80;;;-0.32;80.93;94796.72;4992543;28;20064;-54
2024/01/16 09:28:40;;;;;;;13.20;6.53;;;6.50;58.60;;;0.03;79.92;94796.16;5000534;28;20134;-49
2024/01/16 09:31:08;;;;;;;10.93;5.78;;;7.10;58.40;;;0.45;77.19;94796.31;5003653;28;20388;-49
2024/01/16 09:33:35;;;;;;;10.68;6.53;;;7.80;58.00;;;0.85;75.53;94803.69;5006481;28;20026;-51
2024/01/16 09:36:01;;;;;;;11.90;6.50;;;8.40;57.50;;;1.11;72.60;94797.25;4997427;28;20029;-53
2024/01/16 09:38:26;;;;;;;12.15;6.03;;;8.90;56.90;;;1.05;71.04;94793.69;5005680;28;20025;-55
2024/01/16 09:40:56;;;;;;;10.55;6.00;;;9.30;56.10;;;1.16;71.26;94794.75;5003807;28;20026;-56
2024/01/16 09:43:25;;;;;;;11.60;6.35;;;9.50;55.40;;;1.16;70.85;94794.75;5004719;28;20037;-53
2024/01/16 09:45:54;;;;;;;10.02;6.45;;;9.50;54.80;;;1.14;70.53;94799.44;5003836;28;20041;-59
2024/01/16 09:48:20;;;;;;;9.65;6.32;;;9.50;54.30;;;0.98;70.64;94807.94;4994151;28;20029;-56
2024/01/16 09:50:46;;;;;;;9.60;5.68;;;9.30;54.00;;;0.89;70.32;94796.97;4994899;28;20413;-51
2024/01/16 09:53:12;;;;;;;9.93;6.38;;;9.00;53.80;;;0.90;71.46;94807.22;5003478;28;20064;-53
2024/01/16 09:55:38;;;;;;;11.18;6.50;;;8.90;53.90;;;0.87;71.55;94812.09;4992881;28;20025;-53
2024/01/16 09:58:09;;;;;;;10.35;6.03;;;8.90;53.90;;;0.95;71.08;94817.03;5003673;28;20498;-55
2024/01/16 10:00:36;;;;;;;9.95;6.32;;;8.80;53.70;;;1.06;71.16;94804.97;4995030;28;20026;-54
2024/01/16 10:03:04;;;;;;;11.23;6.80;;;8.80;53.70;;;0.87;71.27;94793.75;4999232;28;20470;-54
2024/01/16 10:05:31;;;;;;;11.15;6.22;;;8.90;53.60;;;0.95;71.06;94793.44;4999186;28;20431;-57
2024/01/16 10:07:59;;;;;;;10.07;6.13;;;8.80;53.50;;;0.93;70.46;94787.63;4996552;28;20025;-54
2024/01/16 10:10:28;;;;;;;11.57;6.00;;;8.70;53.30;;;0.89;71.73;94792.50;5003620;28;20483;-59
2024/01/16 10:12:56;;;;;;;12.05;6.07;;;8.80;53.30;;;0.91;71.69;94794.91;5002272;28;20112;-55